Time;durP1;ratioP1;P1;durP2;ratioP2;P2;SDS_P1;SDS_P2;PMS_P1;PMS_P2;Temp;Humidity;BMP_temperature;BMP_pressure;BME280_temperature;BME280_humidity;BME280_pressure;Samples;Min_cycle;Max_cycle;Signal;HPM_P1;HPM_P2
2022/10/26 00:01:09;;;;;;;;;4.00;3.00;;;;;17.68;71.08;100792.03;5057570;28;69134;-74
2022/10/26 00:03:35;;;;;;;;;4.00;4.00;;;;;17.67;71.37;100783.28;5058267;28;45398;-73
2022/10/26 00:06:27;;;;;;;;;3.00;3.00;;;;;17.69;71.27;100784.06;5040564;28;45365;-74
2022/10/26 00:08:54;;;;;;;;;4.75;4.00;;;;;17.68;71.51;100786.75;5055564;28;45351;-73
2022/10/26 00:11:19;;;;;;;;;5.50;3.00;;;;;17.68;71.13;100786.75;5057781;28;46031;-73
2022/10/26 00:13:46;;;;;;;;;8.00;2.75;;;;;17.67;71.15;100782.47;5057770;28;47855;-74
2022/10/26 00:16:23;;;;;;;;;5.75;5.00;;;;;17.67;70.90;100787.72;5058249;28;45359;-73
2022/10/26 00:18:49;;;;;;;;;3.75;3.75;;;;;17.65;71.22;100785.16;5058000;28;45649;-74
2022/10/26 00:21:14;;;;;;;;;2.25;1.75;;;;;17.63;71.37;100791.47;5058106;28;46176;-74
2022/10/26 00:23:40;;;;;;;;;5.00;3.00;;;;;17.63;71.08;100771.25;5039661;28;45329;-74
2022/10/26 00:26:06;;;;;;;;;6.00;3.75;;;;;17.65;71.14;100779.91;5057349;28;61652;-74
2022/10/26 00:28:31;;;;;;;;;3.50;3.50;;;;;17.67;71.63;100785.09;5058195;28;45434;-74
2022/10/26 00:31:04;;;;;;;;;4.00;3.50;;;;;17.69;71.41;100780.56;5057898;28;47159;-74
2022/10/26 00:33:30;;;;;;;;;3.75;3.00;;;;;17.70;71.62;100784.88;5057814;28;45267;-73
2022/10/26 00:35:55;;;;;;;;;6.00;3.00;;;;;17.70;70.94;100784.88;5058055;28;45314;-74
2022/10/26 00:38:21;;;;;;;;;6.00;3.25;;;;;17.71;71.01;100789.22;5056797;28;62420;-74
2022/10/26 00:40:46;;;;;;;;;5.75;4.00;;;;;17.72;71.39;100793.56;5056677;28;73674;-74
2022/10/26 00:43:33;;;;;;;;;2.25;2.25;;;;;17.71;71.18;100786.59;5057461;28;45310;-73
2022/10/26 00:46:00;;;;;;;;;3.75;2.50;;;;;17.72;71.27;100794.41;5039909;28;45473;-74
2022/10/26 00:48:34;;;;;;;;;3.50;3.50;;;;;17.71;70.76;100795.34;5039838;28;45373;-73
2022/10/26 00:51:02;;;;;;;;;4.00;4.00;;;;;17.68;71.19;100797.28;5039614;28;46406;-73
2022/10/26 00:53:28;;;;;;;;;4.50;3.25;;;;;17.65;70.68;100792.22;5039069;28;45956;-74
2022/10/26 00:55:54;;;;;;;;;4.75;4.75;;;;;17.65;70.06;100805.38;5038883;28;64723;-74
2022/10/26 00:58:20;;;;;;;;;5.00;3.00;;;;;17.64;70.35;100807.16;5056529;28;71524;-74
2022/10/26 01:00:47;;;;;;;;;5.25;5.00;;;;;17.61;70.23;100805.56;5057368;28;46242;-73
2022/10/26 01:03:12;;;;;;;;;5.00;4.50;;;;;17.58;69.83;100825.94;5039359;28;45808;-73
2022/10/26 01:05:40;;;;;;;;;5.50;4.00;;;;;17.54;69.91;100821.78;5038864;28;52892;-74
2022/10/26 01:08:07;;;;;;;;;6.50;4.50;;;;;17.54;70.07;100825.25;5039184;28;45410;-74
2022/10/26 01:10:33;;;;;;;;;7.50;5.00;;;;;17.53;69.64;100833.25;5038592;28;67009;-74
2022/10/26 01:12:59;;;;;;;;;5.00;4.00;;;;;17.52;69.73;100826.28;5057293;28;45296;-74
2022/10/26 01:15:50;;;;;;;;;6.25;6.00;;;;;17.51;69.52;100822.78;5038891;28;52258;-74
2022/10/26 01:18:26;;;;;;;;;8.00;5.00;;;;;17.53;69.44;100828.84;5032095;28;45541;-73
2022/10/26 01:21:22;;;;;;;;;7.00;6.00;;;;;17.52;69.99;100826.28;5056909;28;46238;-74
2022/10/26 01:24:25;;;;;;;;;7.75;4.50;;;;;17.55;69.82;100828.72;5038811;28;45491;-74
2022/10/26 01:26:56;;;;;;;;;5.00;4.75;;;;;17.54;69.60;100830.53;5057221;28;45364;-73
2022/10/26 01:30:02;;;;;;;;;6.00;4.00;;;;;17.54;69.60;100830.53;5057130;28;45398;-74
2022/10/26 01:32:45;;;;;;;;;10.00;5.00;;;;;17.55;69.51;100832.22;5038364;28;46376;-74
2022/10/26 01:35:18;;;;;;;;;5.25;3.25;;;;;17.55;69.61;100850.66;5038730;28;45268;-74
2022/10/26 01:37:55;;;;;;;;;3.25;3.25;;;;;17.53;69.55;100843.75;5056722;28;45409;-74
2022/10/26 01:40:22;;;;;;;;;6.00;6.00;;;;;17.54;69.27;100841.06;5038875;28;45373;-73
2022/10/26 01:42:50;;;;;;;;;3.00;3.00;;;;;17.52;69.68;100847.34;5056686;28;46296;-74
2022/10/26 01:45:15;;;;;;;;;5.00;3.00;;;;;17.52;69.53;100835.03;5056658;28;45470;-74
2022/10/26 01:47:41;;;;;;;;;4.75;4.00;;;;;17.53;69.71;100843.75;5038921;28;45395;-74
2022/10/26 01:50:07;;;;;;;;;4.00;3.00;;;;;17.54;69.72;100846.31;5056791;28;45422;-74
2022/10/26 01:52:32;;;;;;;;;3.00;3.00;;;;;17.56;69.53;100848.88;5037677;28;45516;-73
2022/10/26 01:55:05;;;;;;;;;3.25;2.50;;;;;17.57;69.36;100834.78;5038364;28;46003;-74
2022/10/26 01:57:35;;;;;;;;;3.75;3.25;;;;;17.61;69.39;100842.41;5056652;28;45364;-74
2022/10/26 02:00:08;;;;;;;;;2.00;2.00;;;;;17.64;69.15;100844.00;5037692;28;70429;-74
2022/10/26 02:02:37;;;;;;;;;3.50;3.00;;;;;17.66;69.28;100847.41;5038482;28;46981;-74
2022/10/26 02:05:32;;;;;;;;;4.50;3.00;;;;;17.73;69.33;100840.00;5056160;28;45419;-74
2022/10/26 02:08:11;;;;;;;;;5.50;3.25;;;;;17.76;69.59;100840.69;5056548;28;45411;-74
2022/10/26 02:11:06;;;;;;;;;4.75;3.00;;;;;17.77;68.82;100849.41;5038527;28;45367;-74
2022/10/26 02:13:31;;;;;;;;;3.00;2.50;;;;;17.76;69.06;100860.91;5021453;28;48522;-74
2022/10/26 02:15:56;;;;;;;;;4.67;2.00;;;;;17.76;68.59;100864.38;5056281;28;45357;-74
2022/10/26 02:18:43;;;;;;;;;5.00;3.67;;;;;17.75;68.50;100869.72;5056341;28;45422;-73
2022/10/26 02:21:13;;;;;;;;;2.00;2.00;;;;;17.76;68.66;100881.97;5035820;28;45445;-74
2022/10/26 02:23:41;;;;;;;;;3.50;2.25;;;;;17.75;68.71;100885.53;5034777;28;46982;-74
2022/10/26 02:26:08;;;;;;;;;1.75;1.75;;;;;17.76;68.97;100871.44;5034932;28;45648;-74
2022/10/26 02:28:39;;;;;;;;;3.75;2.00;;;;;17.78;68.80;100867.75;5035000;28;45251;-74
2022/10/26 02:31:05;;;;;;;;;2.50;2.50;;;;;17.78;68.76;100872.19;5034907;28;45438;-74
2022/10/26 02:33:36;;;;;;;;;2.75;2.75;;;;;17.78;68.61;100869.56;5035752;28;46082;-73
2022/10/26 02:36:04;;;;;;;;;3.25;2.00;;;;;17.80;68.36;100881.69;5034376;28;45818;-74
2022/10/26 02:38:31;;;;;;;;;2.00;1.00;;;;;17.84;68.92;100885.00;5034874;28;45460;-73
2022/10/26 02:40:57;;;;;;;;;4.00;2.00;;;;;17.84;68.42;100887.63;5034062;28;64231;-74
2022/10/26 02:43:23;;;;;;;;;3.50;2.25;;;;;17.85;68.57;100899.03;5033891;28;57960;-74
2022/10/26 02:45:55;;;;;;;;;3.00;3.00;;;;;17.87;68.61;100891.94;5034723;28;73312;-74
2022/10/26 02:48:21;;;;;;;;;1.00;1.00;;;;;17.87;68.32;100889.28;5051621;28;45456;-74
2022/10/26 02:50:58;;;;;;;;;2.00;2.00;;;;;17.87;68.89;100878.75;5034459;28;70478;-74
2022/10/26 02:53:34;;;;;;;;;3.00;2.00;;;;;17.90;68.51;100887.31;5035709;28;45235;-74
2022/10/26 02:56:08;;;;;;;;;4.00;2.00;;;;;17.94;69.06;100888.84;5051046;28;45351;-74
2022/10/26 02:58:38;;;;;;;;;4.00;2.00;;;;;17.94;68.37;100880.06;5051422;28;45260;-74
2022/10/26 03:01:03;;;;;;;;;4.75;3.00;;;;;17.92;68.27;100872.28;5051280;28;45484;-74
2022/10/26 03:03:29;;;;;;;;;6.00;2.00;;;;;17.95;68.23;100874.72;5032931;28;75932;-74
2022/10/26 03:05:54;;;;;;;;;3.00;2.00;;;;;17.96;68.56;100873.81;5037091;28;69087;-74
2022/10/26 03:08:19;;;;;;;;;3.50;1.50;;;;;18.01;68.32;100872.69;5038630;28;61287;-74
2022/10/26 03:10:45;;;;;;;;;3.25;2.00;;;;;18.02;68.01;100864.69;5038304;28;70366;-73
2022/10/26 03:13:11;;;;;;;;;2.75;1.50;;;;;17.99;68.13;100870.97;5038953;28;46257;-74
2022/10/26 03:15:37;;;;;;;;;4.00;1.50;;;;;18.02;68.57;100880.50;5038945;28;45342;-74
2022/10/26 03:18:03;;;;;;;;;3.00;1.75;;;;;18.02;68.36;100885.78;5037863;28;64445;-74
2022/10/26 03:20:29;;;;;;;;;3.50;1.75;;;;;18.02;68.01;100888.41;5055531;28;45473;-74
2022/10/26 03:22:55;;;;;;;;;2.75;1.75;;;;;18.01;68.19;100897.22;5057751;28;75764;-74
2022/10/26 03:25:22;;;;;;;;;2.75;1.50;;;;;17.97;67.80;100886.03;5059022;28;45599;-74
2022/10/26 03:27:55;;;;;;;;;2.00;1.75;;;;;17.93;67.79;100895.03;5059130;28;45392;-73
2022/10/26 03:30:20;;;;;;;;;1.50;1.50;;;;;17.91;68.03;100896.91;5059019;28;45153;-73
2022/10/26 03:32:46;;;;;;;;;4.50;2.00;;;;;17.90;67.89;100899.63;5057270;28;73435;-73
2022/10/26 03:35:11;;;;;;;;;4.00;2.00;;;;;17.88;68.13;100902.34;5039832;28;65507;-74
2022/10/26 03:37:36;;;;;;;;;3.00;2.00;;;;;17.89;68.54;100903.22;5057962;28;66856;-74
2022/10/26 03:40:01;;;;;;;;;2.75;1.00;;;;;17.86;68.23;100903.38;5057778;28;70358;-74
2022/10/26 03:42:27;;;;;;;;;1.25;1.25;;;;;17.84;68.16;100915.75;5057780;28;67840;-74
2022/10/26 03:44:52;;;;;;;;;3.00;2.00;;;;;17.78;68.23;100925.69;5039493;28;69983;-73
2022/10/26 03:47:17;;;;;;;;;3.00;2.00;;;;;17.71;68.02;100926.97;5057649;28;62204;-74
2022/10/26 03:49:43;;;;;;;;;3.50;2.50;;;;;17.67;68.22;100930.72;5039714;28;70516;-74
2022/10/26 03:52:08;;;;;;;;;1.00;1.00;;;;;17.65;68.25;100937.00;5057473;28;75667;-74
2022/10/26 03:54:33;;;;;;;;;1.75;1.00;;;;;17.60;68.71;100943.34;5039768;28;67146;-74
2022/10/26 03:56:59;;;;;;;;;4.75;1.25;;;;;17.58;68.80;100942.59;5057605;28;68963;-74
2022/10/26 03:59:24;;;;;;;;;2.00;2.00;;;;;17.56;68.72;100949.72;5057807;28;59793;-73
2022/10/26 04:01:49;;;;;;;;;0.75;0.75;;;;;17.55;69.20;100957.69;5057133;28;75450;-74
2022/10/26 04:04:15;;;;;;;;;3.50;2.00;;;;;17.52;68.82;100956.09;5058293;28;45393;-74
2022/10/26 04:06:40;;;;;;;;;3.50;1.00;;;;;17.50;69.22;100950.06;5057689;28;64944;-73
2022/10/26 04:09:07;;;;;;;;;2.00;2.00;;;;;17.46;69.20;100951.16;5057557;28;69142;-74
2022/10/26 04:11:32;;;;;;;;;1.00;1.00;;;;;17.42;69.47;100953.13;5058042;28;47129;-73
2022/10/26 04:13:59;;;;;;;;;3.00;3.00;;;;;17.39;69.42;100953.28;5057399;28;70636;-74
2022/10/26 04:16:25;;;;;;;;;2.75;1.00;;;;;17.39;69.59;100965.59;5039768;28;45378;-74
2022/10/26 04:18:50;;;;;;;;;2.00;1.00;;;;;17.36;69.51;100971.00;5058005;28;45378;-74
2022/10/26 04:21:15;;;;;;;;;4.00;2.00;;;;;17.33;69.83;100960.66;5057155;28;74362;-74
2022/10/26 04:23:41;;;;;;;;;2.00;2.00;;;;;17.33;70.01;100963.28;5057098;28;72198;-74
2022/10/26 04:26:06;;;;;;;;;3.00;2.00;;;;;17.30;69.75;100971.34;5057217;28;66988;-74
2022/10/26 04:28:32;;;;;;;;;2.25;1.75;;;;;17.27;70.24;100974.13;5057092;28;71207;-74
2022/10/26 04:30:57;;;;;;;;;2.00;1.50;;;;;17.26;70.14;100988.22;5057548;28;45370;-73
2022/10/26 04:33:22;;;;;;;;;3.25;2.00;;;;;17.24;70.26;100982.19;5039034;28;62020;-73
2022/10/26 04:35:48;;;;;;;;;1.00;1.00;;;;;17.22;70.10;100988.38;5057088;28;66919;-73
2022/10/26 04:38:13;;;;;;;;;4.25;3.00;;;;;17.23;70.16;100986.59;5058070;28;45308;-73
2022/10/26 04:40:38;;;;;;;;;3.25;2.00;;;;;17.24;70.13;100993.56;5039235;28;64707;-74
2022/10/26 04:43:04;;;;;;;;;1.50;1.00;;;;;17.21;70.10;100998.97;5039445;28;45505;-74
2022/10/26 04:45:29;;;;;;;;;2.25;2.00;;;;;17.20;70.27;101013.06;5039570;28;45425;-73
2022/10/26 04:48:02;;;;;;;;;1.00;1.00;;;;;17.19;70.19;101017.47;5057710;28;45335;-74
2022/10/26 04:50:27;;;;;;;;;4.00;2.00;;;;;17.18;70.04;101021.03;5057611;28;46422;-74
2022/10/26 04:52:53;;;;;;;;;2.00;2.00;;;;;17.16;70.06;101028.16;5057527;28;45379;-74
2022/10/26 04:55:18;;;;;;;;;2.00;2.00;;;;;17.16;70.50;101027.28;5057669;28;45389;-73
2022/10/26 04:57:44;;;;;;;;;4.00;2.50;;;;;17.14;70.62;101039.69;5057244;28;54973;-73
2022/10/26 05:00:10;;;;;;;;;4.00;3.00;;;;;17.11;70.07;101040.69;5057074;28;45932;-74
2022/10/26 05:02:35;;;;;;;;;2.75;2.75;;;;;17.10;70.42;101048.66;5057355;28;45458;-73
2022/10/26 05:05:00;;;;;;;;;3.25;2.50;;;;;17.09;70.25;101039.94;5039704;28;45326;-74
2022/10/26 05:07:26;;;;;;;;;1.50;1.50;;;;;17.09;70.38;101041.72;5038538;28;68297;-74
2022/10/26 05:09:51;;;;;;;;;2.75;2.25;;;;;17.09;70.53;101044.34;5057321;28;46098;-73
2022/10/26 05:12:16;;;;;;;;;1.00;1.00;;;;;17.08;70.60;101047.88;5056461;28;71776;-74
2022/10/26 05:14:42;;;;;;;;;3.50;1.75;;;;;17.07;70.63;101051.44;5056667;28;52960;-73
2022/10/26 05:17:07;;;;;;;;;2.00;1.00;;;;;17.03;70.63;101053.38;5056804;28;55219;-73
2022/10/26 05:19:32;;;;;;;;;2.00;2.00;;;;;17.01;70.80;101053.47;5055832;28;74484;-74
2022/10/26 05:21:57;;;;;;;;;2.75;1.75;;;;;17.03;70.60;101056.88;5056112;28;72456;-74
2022/10/26 05:24:23;;;;;;;;;2.00;2.00;;;;;17.03;70.40;101064.75;5038298;28;67183;-73
2022/10/26 05:26:48;;;;;;;;;2.50;1.00;;;;;17.03;70.65;101061.25;5038306;28;45509;-73
2022/10/26 05:29:13;;;;;;;;;2.00;2.00;;;;;17.03;70.57;101070.03;5056570;28;47556;-74
2022/10/26 05:31:39;;;;;;;;;4.00;2.75;;;;;17.02;70.58;101076.19;5054714;28;72478;-73
2022/10/26 05:34:04;;;;;;;;;4.25;1.00;;;;;17.02;70.71;101085.88;5056591;28;49156;-74
2022/10/26 05:36:29;;;;;;;;;1.25;1.25;;;;;17.01;70.68;101079.78;5056326;28;64938;-74
2022/10/26 05:38:58;;;;;;;;;2.00;2.00;;;;;17.01;71.09;101090.28;5056836;28;46141;-74
2022/10/26 05:41:24;;;;;;;;;2.00;2.00;;;;;16.99;71.12;101088.66;5056723;28;45819;-73
2022/10/26 05:43:49;;;;;;;;;2.00;2.00;;;;;16.99;71.03;101086.91;5056369;28;45453;-74
2022/10/26 05:46:14;;;;;;;;;1.75;1.75;;;;;16.99;71.08;101089.53;5056096;28;63427;-74
2022/10/26 05:48:40;;;;;;;;;3.50;2.00;;;;;16.96;71.35;101091.44;5038420;28;56153;-74
2022/10/26 05:51:05;;;;;;;;;3.25;1.50;;;;;16.96;71.44;101094.94;5056620;28;45387;-74
2022/10/26 05:53:31;;;;;;;;;3.50;1.00;;;;;16.95;71.37;101097.63;5055754;28;66781;-74
2022/10/26 05:55:56;;;;;;;;;2.75;1.25;;;;;16.98;71.28;101105.38;5037889;28;64340;-74
2022/10/26 05:58:22;;;;;;;;;3.25;1.00;;;;;17.00;71.38;101098.25;5056107;28;45337;-74
2022/10/26 06:01:06;;;;;;;;;1.00;1.00;;;;;16.99;71.09;101114.94;5056581;28;45291;-74
2022/10/26 06:03:44;;;;;;;;;3.00;1.00;;;;;16.99;71.44;101113.19;5056422;28;45371;-74
2022/10/26 06:06:10;;;;;;;;;2.00;1.00;;;;;17.00;71.44;101116.66;5056735;28;45330;-73
2022/10/26 06:08:36;;;;;;;;;2.00;1.00;;;;;16.99;71.38;101109.69;5037443;28;76432;-73
2022/10/26 06:11:01;;;;;;;;;1.25;1.00;;;;;16.96;71.37;101120.38;5056362;28;47436;-74
2022/10/26 06:13:27;;;;;;;;;3.00;2.00;;;;;16.96;71.52;101123.00;5056114;28;45417;-73
2022/10/26 06:16:27;;;;;;;;;1.00;0.00;;;;;16.93;71.03;101113.47;5056132;28;45519;-73
2022/10/26 06:19:23;;;;;;;;;1.25;1.25;;;;;16.94;71.21;101114.34;5055875;28;45292;-73
2022/10/26 06:22:11;;;;;;;;;1.50;1.00;;;;;16.90;70.93;101129.41;5038223;28;45699;-74
2022/10/26 06:25:03;;;;;;;;;2.50;1.00;;;;;16.87;71.14;101123.47;5056410;28;45329;-73
2022/10/26 06:28:04;;;;;;;;;1.00;1.00;;;;;16.83;71.11;101131.47;5038048;28;45535;-73
2022/10/26 06:30:29;;;;;;;;;1.00;1.00;;;;;16.78;71.29;101132.59;5038108;28;45663;-74
2022/10/26 06:32:55;;;;;;;;;3.00;1.00;;;;;16.72;71.25;101140.81;5038210;28;45467;-73
2022/10/26 06:35:53;;;;;;;;;2.50;2.00;;;;;16.65;71.66;101138.44;5037945;28;45366;-73
2022/10/26 06:38:21;;;;;;;;;2.50;2.00;;;;;16.64;71.50;101144.63;5038267;28;45290;-73
2022/10/26 06:40:51;;;;;;;;;1.25;1.25;;;;;16.62;71.71;101143.00;5055566;28;47203;-73
2022/10/26 06:43:24;;;;;;;;;5.00;2.00;;;;;16.61;71.69;101151.81;5037686;28;45667;-73
2022/10/26 06:46:13;;;;;;;;;1.25;1.25;;;;;16.59;71.92;101157.16;5055993;28;45298;-73
2022/10/26 06:49:00;;;;;;;;;3.00;1.00;;;;;16.56;71.73;101159.06;5043213;28;45332;-74
2022/10/26 06:51:28;;;;;;;;;3.00;1.00;;;;;16.58;71.78;101172.97;5055662;28;45302;-74
2022/10/26 06:54:07;;;;;;;;;6.00;2.00;;;;;16.60;72.05;101172.00;5037783;28;45783;-74
2022/10/26 06:56:33;;;;;;;;;3.00;2.00;;;;;16.59;71.60;101182.59;5055409;28;45354;-74
2022/10/26 06:59:05;;;;;;;;;1.50;1.50;;;;;16.61;71.45;101194.72;5036700;28;69014;-75
2022/10/26 07:01:31;;;;;;;;;3.25;1.00;;;;;16.62;71.73;101203.44;5037488;28;46196;-75
2022/10/26 07:03:56;;;;;;;;;2.50;1.00;;;;;16.64;71.98;101202.47;5054617;28;71439;-75
2022/10/26 07:06:21;;;;;;;;;2.25;2.00;;;;;16.68;71.88;101203.19;5036907;28;66724;-75
2022/10/26 07:08:47;;;;;;;;;2.75;2.75;;;;;16.70;71.96;101218.88;5054748;28;65479;-75
2022/10/26 07:11:12;;;;;;;;;4.00;2.00;;;;;16.69;71.89;101212.75;5037128;28;46064;-74
2022/10/26 07:13:37;;;;;;;;;2.75;1.75;;;;;16.69;71.95;101220.63;5054492;28;73138;-75
2022/10/26 07:16:03;;;;;;;;;3.75;2.00;;;;;16.69;71.72;101220.63;5055080;28;54997;-75
2022/10/26 07:18:28;;;;;;;;;3.00;2.00;;;;;16.70;71.46;101230.25;5055511;28;45429;-75
2022/10/26 07:20:54;;;;;;;;;5.75;3.00;;;;;16.72;71.69;101230.16;5054657;28;64811;-75
2022/10/26 07:23:19;;;;;;;;;3.00;2.25;;;;;16.73;72.04;101223.97;5036573;28;67509;-75
2022/10/26 07:25:44;;;;;;;;;2.00;2.00;;;;;16.73;71.79;101226.59;5055156;28;45362;-74
2022/10/26 07:28:10;;;;;;;;;3.00;2.00;;;;;16.70;72.31;101232.88;5054506;28;69580;-75
2022/10/26 07:30:36;;;;;;;;;3.50;3.00;;;;;16.70;71.87;101237.28;5055266;28;45392;-75
2022/10/26 07:33:04;;;;;;;;;2.75;1.00;;;;;16.71;72.11;101254.75;5037195;28;45622;-75
2022/10/26 07:35:29;;;;;;;;;2.00;2.00;;;;;16.73;72.16;101258.16;5054757;28;45344;-74
2022/10/26 07:37:57;;;;;;;;;3.50;1.00;;;;;16.74;72.21;101265.13;5054577;28;61736;-74
2022/10/26 07:40:22;;;;;;;;;2.00;1.00;;;;;16.75;72.06;101264.19;5054734;28;47529;-75
2022/10/26 07:42:47;;;;;;;;;3.00;2.00;;;;;16.78;72.13;101267.53;5054961;28;45197;-74
2022/10/26 07:45:13;;;;;;;;;4.25;2.25;;;;;16.81;71.78;101272.66;5054085;28;69103;-74
2022/10/26 07:47:38;;;;;;;;;1.25;1.25;;;;;16.86;72.07;101271.59;5055213;28;45297;-75
2022/10/26 07:50:04;;;;;;;;;1.75;1.75;;;;;16.88;72.09;101275.00;5054770;28;74460;-75
2022/10/26 07:52:30;;;;;;;;;1.50;0.50;;;;;16.92;71.70;101279.19;5058509;28;45179;-75
2022/10/26 07:54:55;;;;;;;;;4.75;3.00;;;;;16.95;71.89;101286.94;5058346;28;45271;-75
2022/10/26 07:57:20;;;;;;;;;3.00;1.00;;;;;16.96;72.02;101299.19;5056603;28;58133;-74
2022/10/26 07:59:46;;;;;;;;;0.00;0.00;;;;;16.98;72.05;101295.56;5058495;28;45340;-75
2022/10/26 08:02:11;;;;;;;;;4.50;1.00;;;;;17.02;71.51;101294.47;5058291;28;45231;-75
2022/10/26 08:04:36;;;;;;;;;4.00;2.00;;;;;17.04;71.50;101294.41;5058595;28;45416;-74
2022/10/26 08:07:02;;;;;;;;;1.25;1.00;;;;;17.05;72.01;101297.88;5057470;28;66290;-75
2022/10/26 08:09:27;;;;;;;;;5.50;2.00;;;;;17.09;71.84;101302.94;5056693;28;76335;-74
2022/10/26 08:11:52;;;;;;;;;2.25;2.00;;;;;17.13;71.87;101307.13;5039287;28;71891;-74
2022/10/26 08:14:18;;;;;;;;;3.25;2.00;;;;;17.15;71.24;101317.59;5058358;28;45376;-75
2022/10/26 08:16:43;;;;;;;;;2.00;2.00;;;;;17.19;71.60;101319.13;5057254;28;67940;-74
2022/10/26 08:19:08;;;;;;;;;2.00;1.50;;;;;17.26;71.18;101323.19;5057945;28;45846;-75
2022/10/26 08:21:34;;;;;;;;;4.50;2.00;;;;;17.30;71.09;101316.84;5058059;28;45375;-75
2022/10/26 08:23:59;;;;;;;;;2.50;1.00;;;;;17.39;70.79;101326.94;5057269;28;59102;-74
2022/10/26 08:26:24;;;;;;;;;1.75;1.50;;;;;17.46;70.74;101330.13;5057224;28;68837;-74
2022/10/26 08:28:50;;;;;;;;;4.25;2.00;;;;;17.53;70.61;101336.81;5057878;28;46047;-74
2022/10/26 08:31:15;;;;;;;;;2.00;2.00;;;;;17.59;70.31;101323.34;5057219;28;63175;-75
2022/10/26 08:33:40;;;;;;;;;2.75;2.75;;;;;17.67;70.29;101336.13;5056789;28;69330;-75
2022/10/26 08:36:06;;;;;;;;;1.75;1.25;;;;;17.71;70.16;101335.03;5057405;28;57598;-75
2022/10/26 08:38:32;;;;;;;;;3.00;1.50;;;;;17.79;70.17;101338.16;5057469;28;46994;-75
2022/10/26 08:40:58;;;;;;;;;3.25;2.00;;;;;17.85;70.11;101341.41;5057874;28;45324;-74
2022/10/26 08:43:38;;;;;;;;;2.50;2.00;;;;;17.90;69.73;101331.50;5057680;28;45711;-74
2022/10/26 08:46:08;;;;;;;;;3.25;1.00;;;;;17.96;69.73;101339.97;5040090;28;45346;-74
2022/10/26 08:48:37;;;;;;;;;4.00;2.00;;;;;18.01;69.24;101339.72;5039744;28;46297;-75
2022/10/26 08:51:34;;;;;;;;;4.25;3.00;;;;;18.09;69.36;101337.56;5039242;28;45766;-74
2022/10/26 08:54:05;;;;;;;;;3.00;1.00;;;;;18.20;69.29;101344.91;5057834;28;45524;-75
2022/10/26 08:56:40;;;;;;;;;3.00;1.75;;;;;18.27;68.78;101353.34;5039601;28;45340;-75
2022/10/26 08:59:14;;;;;;;;;5.25;1.25;;;;;18.31;68.43;101361.03;5039213;28;51652;-75
2022/10/26 09:01:39;;;;;;;;;1.00;1.00;;;;;18.34;68.19;101366.13;5056213;28;45299;-75
2022/10/26 09:04:09;;;;;;;;;3.25;1.25;;;;;18.39;67.83;101365.91;5056624;28;69450;-75
2022/10/26 09:06:56;;;;;;;;;3.50;2.00;;;;;18.46;67.78;101366.44;5039236;28;45359;-75
2022/10/26 09:09:41;;;;;;;;;2.00;1.00;;;;;18.52;67.61;101372.25;5039405;28;46240;-75
2022/10/26 09:12:18;;;;;;;;;1.25;1.25;;;;;18.57;67.43;101374.63;5039349;28;45278;-75
2022/10/26 09:14:56;;;;;;;;;1.00;1.00;;;;;18.64;67.33;101367.25;5057562;28;45462;-75
2022/10/26 09:17:35;;;;;;;;;0.50;0.50;;;;;18.72;66.90;101386.16;5022669;28;45619;-75
2022/10/26 09:20:08;;;;;;;;;1.75;1.75;;;;;18.79;66.93;101376.97;5038726;28;45378;-74
2022/10/26 09:22:50;;;;;;;;;3.00;1.00;;;;;18.89;66.93;101382.69;5039049;28;45417;-75
2022/10/26 09:25:23;;;;;;;;;2.00;1.50;;;;;18.94;66.59;101373.56;5039336;28;45286;-75
2022/10/26 09:28:00;;;;;;;;;3.50;1.00;;;;;19.03;66.30;101389.84;5039168;28;45501;-75
2022/10/26 09:30:26;;;;;;;;;1.00;1.00;;;;;19.10;65.96;101393.84;5056974;28;47385;-75
2022/10/26 09:32:56;;;;;;;;;1.50;0.00;;;;;19.19;65.65;101392.50;5056545;28;54009;-75
2022/10/26 09:35:28;;;;;;;;;2.25;1.75;;;;;19.27;65.74;101392.91;5056765;28;45386;-75
2022/10/26 09:38:02;;;;;;;;;1.00;1.00;;;;;19.34;65.18;101395.13;5039143;28;45485;-75
2022/10/26 09:40:35;;;;;;;;;2.00;0.75;;;;;19.43;64.44;101408.78;5056835;28;46130;-75
2022/10/26 09:43:05;;;;;;;;;2.00;0.25;;;;;19.50;64.25;101402.19;5038844;28;45748;-75
2022/10/26 09:45:36;;;;;;;;;2.00;1.00;;;;;19.60;63.90;101405.19;5057049;28;45287;-75
2022/10/26 09:48:10;;;;;;;;;1.00;1.00;;;;;19.65;63.84;101406.63;5039035;28;45443;-75
2022/10/26 09:50:38;;;;;;;;;0.75;0.75;;;;;19.74;63.48;101394.69;5038521;28;46145;-75
2022/10/26 09:53:03;;;;;;;;;0.50;0.50;;;;;19.81;63.37;101401.34;5038758;28;45315;-75
2022/10/26 09:55:30;;;;;;;;;1.50;1.00;;;;;19.91;63.23;101401.69;5056663;28;45311;-75
2022/10/26 09:58:00;;;;;;;;;3.50;1.00;;;;;19.95;62.88;101408.50;5038704;28;45438;-75
2022/10/26 10:00:27;;;;;;;;;0.25;0.00;;;;;20.03;62.47;101408.88;5038543;28;46132;-75
2022/10/26 10:02:54;;;;;;;;;3.75;1.00;;;;;20.09;61.91;101411.16;5056475;28;45397;-75
2022/10/26 10:05:21;;;;;;;;;3.00;0.75;;;;;20.19;61.96;101423.84;5038433;28;45526;-75
2022/10/26 10:07:46;;;;;;;;;3.50;0.00;;;;;20.23;61.32;101422.75;5056481;28;45435;-75
2022/10/26 10:10:20;;;;;;;;;2.00;1.00;;;;;20.26;61.12;101427.84;5056439;28;46296;-75
2022/10/26 10:12:49;;;;;;;;;2.00;1.00;;;;;20.31;61.10;101445.13;5055946;28;45628;-75
2022/10/26 10:15:24;;;;;;;;;2.00;1.00;;;;;20.37;60.19;101445.72;5038966;28;45317;-75
2022/10/26 10:17:56;;;;;;;;;2.75;0.50;;;;;20.40;60.21;101442.91;5056425;28;45415;-75
2022/10/26 10:20:31;;;;;;;;;1.25;0.00;;;;;20.45;60.41;101446.97;5056000;28;47193;-75
2022/10/26 10:23:01;;;;;;;;;2.50;0.00;;;;;20.53;59.83;101456.25;5038256;28;45822;-75
2022/10/26 10:25:37;;;;;;;;;0.75;0.00;;;;;20.58;60.57;101465.59;5056485;28;45401;-75
2022/10/26 10:28:23;;;;;;;;;3.00;0.00;;;;;20.69;60.40;101455.25;5038229;28;45428;-75
2022/10/26 10:30:56;;;;;;;;;1.00;1.00;;;;;20.79;59.21;101452.06;5037995;28;47173;-75
2022/10/26 10:33:21;;;;;;;;;2.00;0.00;;;;;20.86;59.14;101459.53;5055586;28;45398;-75
2022/10/26 10:35:49;;;;;;;;;1.00;1.00;;;;;20.95;58.96;101457.25;5056212;28;45343;-75
2022/10/26 10:38:19;;;;;;;;;1.50;0.00;;;;;21.03;58.91;101463.78;5056100;28;45295;-75
2022/10/26 10:40:52;;;;;;;;;1.00;1.00;;;;;21.15;58.74;101469.25;5056034;28;45286;-75
2022/10/26 10:43:18;;;;;;;;;1.25;0.50;;;;;21.24;57.63;101476.63;5037788;28;45305;-75
2022/10/26 10:45:50;;;;;;;;;1.00;1.00;;;;;21.37;58.40;101474.91;5037278;28;62235;-75
2022/10/26 10:48:21;;;;;;;;;0.00;0.00;;;;;21.55;57.96;101474.75;5037733;28;45328;-75
2022/10/26 10:50:51;;;;;;;;;0.25;0.25;;;;;21.72;57.27;101473.66;5055792;28;47097;-75
2022/10/26 10:53:36;;;;;;;;;1.50;1.00;;;;;21.93;56.28;101466.97;5037809;28;45410;-75
2022/10/26 10:56:20;;;;;;;;;1.00;1.00;;;;;22.14;57.22;101461.19;5055792;28;45367;-75
2022/10/26 10:58:56;;;;;;;;;3.50;0.00;;;;;22.40;56.48;101470.97;5055727;28;45401;-75
2022/10/26 11:01:24;;;;;;;;;3.50;1.00;;;;;22.80;55.71;101462.09;5037686;28;46720;-75
2022/10/26 11:04:08;;;;;;;;;0.50;0.50;;;;;24.26;52.83;101477.38;5056055;28;45228;-75
2022/10/26 11:06:36;;;;;;;;;0.75;0.00;;;;;25.98;50.54;101471.84;5056120;28;45236;-75
2022/10/26 11:09:03;;;;;;;;;2.00;0.00;;;;;27.56;48.30;101476.19;5037701;28;45910;-76
2022/10/26 11:11:49;;;;;;;;;0.75;0.00;;;;;29.26;44.91;101487.31;5037518;28;45538;-76
2022/10/26 11:14:28;;;;;;;;;2.50;1.00;;;;;30.53;41.34;101484.53;5037404;28;45745;-76
2022/10/26 11:17:15;;;;;;;;;1.75;1.00;;;;;31.69;39.69;101486.00;5055300;28;45422;-76
2022/10/26 11:19:52;;;;;;;;;2.00;0.00;;;;;32.59;37.74;101499.50;5037480;28;45554;-76
2022/10/26 11:22:21;;;;;;;;;0.25;0.25;;;;;33.09;35.72;101497.53;5055279;28;45477;-76
2022/10/26 11:25:02;;;;;;;;;1.75;0.00;;;;;33.52;33.99;101501.56;5038800;28;45416;-75
2022/10/26 11:27:46;;;;;;;;;0.00;0.00;;;;;33.99;33.90;101504.31;5059625;28;45469;-76
2022/10/26 11:30:19;;;;;;;;;0.00;0.00;;;;;34.23;31.71;101495.22;5041103;28;45501;-76
2022/10/26 11:32:53;;;;;;;;;0.00;0.00;;;;;34.44;30.31;101503.47;5040419;28;46123;-76
2022/10/26 11:35:40;;;;;;;;;0.00;0.00;;;;;34.60;32.09;101509.72;5058814;28;45295;-73
2022/10/26 11:38:16;;;;;;;;;2.00;0.00;;;;;34.70;31.38;101502.22;5059091;28;45295;-74